OOL weather

Gold Coast Airport
Gold Coast, Queensland, Australia

Public forecast

Using degrees Celsius for public forecast. Weather courtesy of forecast.io.

METAR (pilot weather report)

Retrieved 2019/02/18 16:00 UTC (21 minutes ago):

YBCG 181600Z AUTO 22002KT //// // ////// 20/18 Q1009 RF00.0/000.0

TAF (pilot weather forecast)

Retrieved 2019/02/18 12:00 UTC (4 hours ago):

TAF YBCG 181108Z 1812/1912 22005KT 9999 SCT025 FM182300 14010KT 9999 SCT040 FM190000 05010KT 9999 FEW040 FM191000 05006KT 9999 SCT020